createdAt,value
2023-03-06T00:01:27.901Z,8.11
2023-03-06T00:04:10.323Z,8.09
2023-03-06T00:06:49.426Z,8.88
2023-03-06T00:09:28.538Z,9.00
2023-03-06T00:12:07.613Z,8.76
2023-03-06T00:14:46.671Z,8.81
2023-03-06T00:17:30.987Z,9.05
2023-03-06T00:20:10.716Z,8.80
2023-03-06T00:22:50.543Z,8.35
2023-03-06T00:25:30.928Z,8.30
2023-03-06T00:28:10.016Z,7.94
2023-03-06T00:30:50.318Z,8.09
2023-03-06T00:33:34.545Z,7.83
2023-03-06T00:36:14.342Z,8.20
2023-03-06T00:38:53.403Z,8.21
2023-03-06T00:41:32.481Z,8.01
2023-03-06T00:44:12.021Z,8.36
2023-03-06T00:46:51.078Z,8.59
2023-03-06T00:49:35.294Z,8.75
2023-03-06T00:52:14.416Z,8.80
2023-03-06T00:54:53.590Z,9.44
2023-03-06T00:57:32.770Z,9.21
2023-03-06T01:00:14.133Z,9.12
2023-03-06T01:02:54.625Z,9.39
2023-03-06T01:05:43.200Z,9.52
2023-03-06T01:08:22.257Z,8.99
2023-03-06T01:11:01.506Z,9.40
2023-03-06T01:13:40.566Z,10.32
2023-03-06T01:16:22.411Z,9.47
2023-03-06T01:19:01.497Z,9.24
2023-03-06T01:21:45.660Z,9.44
2023-03-06T01:24:25.010Z,8.86
2023-03-06T01:27:05.522Z,9.24
2023-03-06T01:29:44.569Z,8.92
2023-03-06T01:32:23.867Z,8.95
2023-03-06T01:35:04.768Z,9.14
2023-03-06T01:37:49.467Z,9.63
2023-03-06T01:40:28.605Z,9.50
2023-03-06T01:43:17.450Z,9.80
2023-03-06T01:46:25.056Z,9.30
2023-03-06T01:49:08.115Z,9.28
2023-03-06T01:51:52.758Z,9.15
2023-03-06T01:54:42.705Z,8.73
2023-03-06T01:57:26.488Z,8.86
2023-03-06T02:00:12.210Z,8.43
2023-03-06T02:02:54.528Z,8.58
2023-03-06T02:05:34.500Z,9.15
2023-03-06T02:08:16.398Z,9.08
2023-03-06T02:11:08.768Z,8.61
2023-03-06T02:13:49.823Z,9.16
2023-03-06T02:16:33.408Z,9.49
2023-03-06T02:19:21.252Z,9.42
2023-03-06T02:22:00.393Z,9.91
2023-03-06T02:24:48.743Z,10.05
2023-03-06T02:27:33.934Z,10.45
2023-03-06T02:30:15.158Z,9.65
2023-03-06T02:32:54.257Z,9.76
2023-03-06T02:35:35.455Z,9.49
2023-03-06T02:38:19.366Z,9.79
2023-03-06T02:40:59.938Z,9.87
2023-03-06T02:43:46.932Z,10.11
2023-03-06T02:46:26.498Z,9.71
2023-03-06T02:49:05.602Z,9.77
2023-03-06T02:51:44.693Z,10.56
2023-03-06T02:54:24.088Z,10.28
2023-03-06T02:57:03.329Z,10.39
2023-03-06T02:59:47.468Z,10.56
2023-03-06T03:02:26.586Z,10.13
2023-03-06T03:05:05.684Z,10.26
2023-03-06T03:07:44.878Z,10.21
2023-03-06T03:10:24.169Z,9.83
2023-03-06T03:13:03.421Z,9.62
2023-03-06T03:15:47.651Z,9.29
2023-03-06T03:18:27.375Z,9.46
2023-03-06T03:21:06.528Z,9.24
2023-03-06T03:23:45.668Z,9.21
2023-03-06T03:26:28.899Z,8.64
2023-03-06T03:29:07.844Z,8.99
2023-03-06T03:31:51.884Z,9.50
2023-03-06T03:34:30.878Z,8.86
2023-03-06T03:37:09.935Z,9.64
2023-03-06T03:39:49.001Z,9.74
2023-03-06T03:42:28.012Z,8.94
2023-03-06T03:45:07.020Z,9.08
2023-03-06T03:47:51.276Z,9.90
2023-03-06T03:50:30.264Z,9.28
2023-03-06T03:53:09.636Z,9.00
2023-03-06T03:55:48.628Z,8.82
2023-03-06T03:58:27.679Z,8.93
2023-03-06T04:01:06.751Z,8.86
2023-03-06T04:03:51.112Z,9.14
2023-03-06T04:06:30.185Z,9.15
2023-03-06T04:09:09.455Z,8.95
2023-03-06T04:11:48.406Z,8.70
2023-03-06T04:14:27.564Z,11.06
2023-03-06T04:17:06.642Z,12.81
2023-03-06T04:19:50.714Z,9.91
2023-03-06T04:22:29.674Z,9.04
2023-03-06T04:25:08.777Z,9.25
2023-03-06T04:27:47.838Z,9.10
2023-03-06T04:30:27.130Z,9.28
2023-03-06T04:33:06.818Z,9.66
2023-03-06T04:35:51.538Z,9.47
2023-03-06T04:38:30.612Z,9.33
2023-03-06T04:41:09.626Z,9.34
2023-03-06T04:43:48.588Z,9.14
2023-03-06T04:46:27.748Z,9.33
2023-03-06T04:49:07.150Z,8.89
2023-03-06T04:51:51.243Z,9.29
2023-03-06T04:54:30.468Z,8.21
2023-03-06T04:57:11.412Z,8.65
2023-03-06T04:59:51.584Z,9.98
2023-03-06T05:02:32.467Z,10.04
2023-03-06T05:05:12.900Z,12.67
2023-03-06T05:07:57.052Z,9.04
2023-03-06T05:10:36.051Z,9.35
2023-03-06T05:13:15.261Z,9.36
2023-03-06T05:15:54.369Z,9.32
2023-03-06T05:18:33.404Z,9.24
2023-03-06T05:21:13.332Z,8.57
2023-03-06T05:23:57.504Z,8.65
2023-03-06T05:26:36.530Z,8.77
2023-03-06T05:29:15.554Z,8.70
2023-03-06T05:31:54.593Z,8.81
2023-03-06T05:34:33.709Z,8.74
2023-03-06T05:37:12.835Z,8.90
2023-03-06T05:39:57.660Z,9.32
2023-03-06T05:42:38.438Z,9.61
2023-03-06T05:45:19.022Z,9.48
2023-03-06T05:47:59.759Z,10.10
2023-03-06T05:50:38.961Z,9.96
2023-03-06T05:53:18.142Z,11.73
2023-03-06T05:56:10.044Z,13.28
2023-03-06T05:58:49.232Z,14.51
2023-03-06T06:01:29.431Z,11.31
2023-03-06T06:04:08.456Z,10.35
2023-03-06T06:06:47.413Z,10.50
2023-03-06T06:09:27.268Z,11.53
2023-03-06T06:12:11.950Z,10.77
2023-03-06T06:14:50.958Z,11.63
2023-03-06T06:17:30.085Z,11.19
2023-03-06T06:20:09.766Z,10.59
2023-03-06T06:22:48.835Z,11.28
2023-03-06T06:25:28.209Z,10.92
2023-03-06T06:28:13.352Z,11.42
2023-03-06T06:30:52.386Z,10.60
2023-03-06T06:33:32.334Z,10.79
2023-03-06T06:36:11.985Z,10.60
2023-03-06T06:38:51.007Z,11.02
2023-03-06T06:41:46.568Z,11.47
2023-03-06T06:44:35.202Z,11.33
2023-03-06T06:47:24.025Z,12.54
2023-03-06T06:50:04.506Z,12.38
2023-03-06T06:52:43.516Z,15.74
2023-03-06T06:55:22.719Z,16.14
2023-03-06T06:58:01.856Z,12.30
2023-03-06T07:00:45.926Z,11.94
2023-03-06T07:03:26.495Z,11.81
2023-03-06T07:06:05.488Z,11.34
2023-03-06T07:08:44.699Z,11.96
2023-03-06T07:11:25.699Z,12.55
2023-03-06T07:14:04.964Z,12.82
2023-03-06T07:16:49.025Z,11.74
2023-03-06T07:19:28.135Z,11.55
2023-03-06T07:22:08.549Z,11.78
2023-03-06T07:24:47.746Z,12.55
2023-03-06T07:27:27.235Z,13.99
2023-03-06T07:30:06.308Z,15.41
2023-03-06T07:32:50.363Z,15.79
2023-03-06T07:35:31.170Z,16.65
2023-03-06T07:38:10.315Z,14.81
2023-03-06T07:40:49.366Z,13.28
2023-03-06T07:43:28.405Z,16.18
2023-03-06T07:46:08.303Z,25.87
2023-03-06T07:48:52.727Z,23.25
2023-03-06T07:51:31.734Z,24.76
2023-03-06T07:54:10.898Z,20.81
2023-03-06T07:56:49.928Z,21.95
2023-03-06T07:59:29.369Z,20.27
2023-03-06T08:02:10.202Z,19.66
2023-03-06T08:04:59.408Z,19.96
2023-03-06T08:07:38.851Z,19.85
2023-03-06T08:10:21.284Z,19.54
2023-03-06T08:13:00.321Z,19.64
2023-03-06T08:15:39.412Z,19.90
2023-03-06T08:18:18.618Z,21.11
2023-03-06T08:21:08.841Z,21.25
2023-03-06T08:23:48.945Z,20.24
2023-03-06T08:26:29.879Z,20.88
2023-03-06T08:29:12.301Z,20.83
2023-03-06T08:31:53.532Z,20.99
2023-03-06T08:34:33.339Z,21.73
2023-03-06T08:37:17.455Z,30.49
2023-03-06T08:39:56.460Z,80.77
2023-03-06T08:42:35.461Z,23.73
2023-03-06T08:45:16.257Z,24.09
2023-03-06T08:47:55.253Z,21.86
2023-03-06T08:50:34.282Z,22.15
2023-03-06T08:53:18.462Z,22.30
2023-03-06T08:55:57.518Z,22.10
2023-03-06T08:58:36.770Z,22.74
2023-03-06T09:01:20.357Z,21.96
2023-03-06T09:04:02.712Z,22.73
2023-03-06T09:06:46.222Z,22.41
2023-03-06T09:09:30.317Z,22.26
2023-03-06T09:12:09.377Z,21.68
2023-03-06T09:14:48.344Z,22.11
2023-03-06T09:17:27.450Z,21.72
2023-03-06T09:20:06.604Z,22.84
2023-03-06T09:22:46.629Z,22.39
2023-03-06T09:25:30.754Z,23.42
2023-03-06T09:28:11.990Z,22.62
2023-03-06T09:30:51.289Z,22.35
2023-03-06T09:33:32.269Z,24.02
2023-03-06T09:36:12.967Z,23.12
2023-03-06T09:38:52.156Z,22.74
2023-03-06T09:41:41.430Z,22.97
2023-03-06T09:44:26.950Z,22.14
2023-03-06T09:47:43.188Z,22.50
2023-03-06T09:50:44.844Z,22.42
2023-03-06T09:53:45.482Z,21.70
2023-03-06T09:56:31.993Z,23.08
2023-03-06T09:59:24.310Z,23.05
2023-03-06T10:02:15.706Z,23.75
2023-03-06T10:05:02.679Z,22.30
2023-03-06T10:07:52.586Z,23.37
2023-03-06T10:10:35.002Z,23.43
2023-03-06T10:13:26.468Z,22.14
2023-03-06T10:16:24.134Z,22.56
2023-03-06T10:19:08.515Z,22.69
2023-03-06T10:21:56.708Z,23.03
2023-03-06T10:24:52.672Z,24.87
2023-03-06T10:27:45.915Z,24.74
2023-03-06T10:30:38.898Z,22.97
2023-03-06T10:33:33.812Z,23.47
2023-03-06T10:36:17.706Z,23.59
2023-03-06T10:38:56.841Z,23.28
2023-03-06T10:41:39.274Z,23.42
2023-03-06T10:44:27.451Z,23.30
2023-03-06T10:47:07.182Z,22.57
2023-03-06T10:50:06.675Z,23.58
2023-03-06T10:52:47.137Z,23.72
2023-03-06T10:55:35.978Z,23.71
2023-03-06T10:58:25.749Z,22.62
2023-03-06T11:01:13.031Z,22.67
2023-03-06T11:03:53.347Z,23.50
2023-03-06T11:06:43.041Z,23.33
2023-03-06T11:09:27.585Z,23.78
2023-03-06T11:12:31.236Z,22.83
2023-03-06T11:15:28.762Z,22.22
2023-03-06T11:18:11.354Z,22.91
2023-03-06T11:20:53.360Z,23.78
2023-03-06T11:23:48.199Z,22.68
2023-03-06T11:26:38.553Z,22.88
2023-03-06T11:29:38.860Z,22.00
2023-03-06T11:32:27.291Z,22.06
2023-03-06T11:35:11.608Z,20.50
2023-03-06T11:37:59.458Z,21.57
2023-03-06T11:40:50.484Z,21.01
2023-03-06T11:43:37.544Z,21.25
2023-03-06T11:46:26.854Z,20.25
2023-03-06T11:49:17.880Z,19.74
2023-03-06T11:52:02.292Z,18.36
2023-03-06T11:54:41.389Z,21.04
2023-03-06T11:57:29.947Z,20.28
2023-03-06T12:00:22.574Z,21.29
2023-03-06T12:03:28.288Z,20.20
2023-03-06T12:06:12.868Z,20.03
2023-03-06T12:09:05.802Z,19.64
2023-03-06T12:11:55.682Z,20.16
2023-03-06T12:14:59.699Z,20.22
2023-03-06T12:17:57.392Z,20.16
2023-03-06T12:20:59.912Z,20.34
2023-03-06T12:23:58.370Z,19.06
2023-03-06T12:27:01.743Z,19.08
2023-03-06T12:30:22.960Z,19.06
2023-03-06T12:33:14.331Z,19.29
2023-03-06T12:36:17.646Z,19.22
2023-03-06T12:39:07.352Z,19.22
2023-03-06T12:41:56.626Z,19.04
2023-03-06T12:45:02.098Z,18.96
2023-03-06T12:47:49.327Z,19.27
2023-03-06T12:50:33.155Z,19.77
2023-03-06T12:53:19.497Z,18.43
2023-03-06T12:56:00.162Z,18.97
2023-03-06T12:58:53.674Z,20.07
2023-03-06T13:01:56.944Z,20.60
2023-03-06T13:05:10.521Z,18.43
2023-03-06T13:08:10.264Z,18.96
2023-03-06T13:10:53.407Z,18.22
2023-03-06T13:13:38.646Z,18.44
2023-03-06T13:16:20.928Z,21.86
2023-03-06T13:19:11.171Z,23.27
2023-03-06T13:21:52.599Z,21.91
2023-03-06T13:24:33.460Z,17.44
2023-03-06T13:27:15.710Z,18.30
2023-03-06T13:30:10.496Z,19.66
2023-03-06T13:32:50.010Z,16.93
2023-03-06T13:36:03.702Z,16.69
2023-03-06T13:39:03.341Z,17.52
2023-03-06T13:41:50.622Z,16.73
2023-03-06T13:44:55.077Z,22.63
2023-03-06T13:50:49.474Z,19.20
2023-03-06T13:53:58.900Z,22.77
2023-03-06T13:57:12.805Z,16.77
2023-03-06T14:00:25.987Z,15.47
2023-03-06T14:03:34.876Z,15.12
2023-03-06T14:06:44.338Z,16.36
2023-03-06T14:09:33.593Z,17.35
2023-03-06T14:12:27.703Z,16.81
2023-03-06T14:15:11.978Z,17.41
2023-03-06T14:18:03.472Z,18.02
2023-03-06T14:20:49.744Z,25.57
2023-03-06T14:23:36.363Z,18.71
2023-03-06T14:26:21.245Z,17.52
2023-03-06T14:29:10.350Z,21.24
2023-03-06T14:31:50.597Z,21.17
2023-03-06T14:34:33.389Z,19.59
2023-03-06T14:37:26.098Z,19.73
2023-03-06T14:40:06.987Z,19.88
2023-03-06T14:42:46.063Z,19.75
2023-03-06T14:45:30.349Z,19.04
2023-03-06T14:48:09.337Z,25.68
2023-03-06T14:50:49.200Z,20.53
2023-03-06T14:53:33.984Z,19.09
2023-03-06T14:56:14.779Z,19.15
2023-03-06T14:59:01.348Z,18.33
2023-03-06T15:01:49.468Z,19.88
2023-03-06T15:04:38.992Z,21.11
2023-03-06T15:07:23.182Z,25.15
2023-03-06T15:10:02.874Z,25.58
2023-03-06T15:12:44.763Z,21.22
2023-03-06T15:15:39.418Z,20.02
2023-03-06T15:18:40.299Z,19.93
2023-03-06T15:21:28.154Z,20.72
2023-03-06T15:24:07.183Z,51.77
2023-03-06T15:26:47.276Z,26.86
2023-03-06T15:29:29.950Z,20.42
2023-03-06T15:32:33.135Z,20.91
2023-03-06T15:35:39.560Z,19.66
2023-03-06T15:38:33.351Z,23.57
2023-03-06T15:41:14.275Z,25.80
2023-03-06T15:43:53.442Z,21.07
2023-03-06T15:46:32.809Z,23.53
2023-03-06T15:49:11.924Z,19.06
2023-03-06T15:51:56.019Z,18.25
2023-03-06T15:54:35.025Z,17.90
2023-03-06T15:57:26.055Z,18.01
2023-03-06T16:00:25.380Z,17.69
2023-03-06T16:03:06.360Z,17.33
2023-03-06T16:05:46.115Z,18.52
2023-03-06T16:08:30.719Z,17.55
2023-03-06T16:11:11.222Z,22.11
2023-03-06T16:13:51.392Z,17.93
2023-03-06T16:16:40.621Z,16.59
2023-03-06T16:19:26.418Z,15.14
2023-03-06T16:22:06.063Z,15.07
2023-03-06T16:24:50.624Z,17.58
2023-03-06T16:27:29.999Z,19.94
2023-03-06T16:30:09.053Z,22.12
2023-03-06T16:32:48.137Z,16.43
2023-03-06T16:35:27.233Z,15.89
2023-03-06T16:38:06.290Z,15.01
2023-03-06T16:40:50.383Z,13.76
2023-03-06T16:43:29.368Z,13.64
2023-03-06T16:46:13.046Z,16.17
2023-03-06T16:48:53.247Z,15.39
2023-03-06T16:51:32.854Z,14.00
2023-03-06T16:54:12.286Z,18.68
2023-03-06T16:56:56.318Z,21.04
2023-03-06T16:59:35.356Z,17.42
2023-03-06T17:02:14.367Z,18.85
2023-03-06T17:04:53.410Z,29.28
2023-03-06T17:07:32.399Z,33.78
2023-03-06T17:10:17.453Z,39.73
2023-03-06T17:13:03.441Z,25.80
2023-03-06T17:15:42.527Z,22.28
2023-03-06T17:18:21.553Z,23.85
2023-03-06T17:21:01.129Z,17.41
2023-03-06T17:23:40.155Z,15.26
2023-03-06T17:26:21.870Z,21.57
2023-03-06T17:29:07.154Z,18.85
2023-03-06T17:31:46.320Z,14.54
2023-03-06T17:34:25.301Z,13.93
2023-03-06T17:37:04.318Z,14.99
2023-03-06T17:39:45.238Z,15.15
2023-03-06T17:42:24.263Z,16.33
2023-03-06T17:45:10.215Z,18.23
2023-03-06T17:47:49.438Z,19.19
2023-03-06T17:50:28.623Z,18.01
2023-03-06T17:53:07.923Z,17.74
2023-03-06T17:55:46.907Z,20.28
2023-03-06T17:58:25.978Z,17.41
2023-03-06T18:01:17.065Z,18.41
2023-03-06T18:03:57.982Z,21.37
2023-03-06T18:06:38.471Z,22.77
2023-03-06T18:09:17.526Z,25.47
2023-03-06T18:11:56.864Z,23.55
2023-03-06T18:14:37.954Z,24.79
2023-03-06T18:17:21.996Z,23.48
2023-03-06T18:20:01.978Z,25.82
2023-03-06T18:22:41.121Z,23.91
2023-03-06T18:25:20.172Z,25.86
2023-03-06T18:27:59.174Z,27.10
2023-03-06T18:30:38.343Z,26.65
2023-03-06T18:33:22.410Z,25.69
2023-03-06T18:36:01.629Z,25.11
2023-03-06T18:38:42.292Z,25.54
2023-03-06T18:41:21.639Z,26.13
2023-03-06T18:44:02.459Z,25.75
2023-03-06T18:46:44.051Z,25.30
2023-03-06T18:49:28.222Z,25.63
2023-03-06T18:52:07.202Z,24.88
2023-03-06T18:54:46.498Z,25.47
2023-03-06T18:57:25.537Z,25.11
2023-03-06T19:00:04.565Z,24.86
2023-03-06T19:02:43.616Z,24.27
2023-03-06T19:05:27.717Z,24.50
2023-03-06T19:08:06.715Z,23.80
2023-03-06T19:10:48.420Z,23.46
2023-03-06T19:13:27.426Z,23.93
2023-03-06T19:16:06.935Z,23.00
2023-03-06T19:18:47.125Z,24.62
2023-03-06T19:21:33.473Z,22.61
2023-03-06T19:24:15.192Z,22.57
2023-03-06T19:26:54.187Z,23.25
2023-03-06T19:29:33.495Z,27.68
2023-03-06T19:32:13.324Z,23.03
2023-03-06T19:34:59.591Z,21.75
2023-03-06T19:37:44.034Z,21.68
2023-03-06T19:40:24.209Z,22.56
2023-03-06T19:43:03.270Z,21.64
2023-03-06T19:45:42.314Z,21.54
2023-03-06T19:48:22.822Z,22.26
2023-03-06T19:51:02.033Z,22.35
2023-03-06T19:53:46.948Z,22.90
2023-03-06T19:56:28.355Z,23.82
2023-03-06T19:59:07.375Z,24.14
2023-03-06T20:01:46.752Z,23.23
2023-03-06T20:04:26.013Z,24.45
2023-03-06T20:07:05.809Z,24.94
2023-03-06T20:09:49.850Z,25.91
2023-03-06T20:12:28.852Z,25.49
2023-03-06T20:15:07.852Z,27.55
2023-03-06T20:17:47.184Z,28.11
2023-03-06T20:20:26.598Z,29.22
2023-03-06T20:23:05.788Z,32.11
2023-03-06T20:25:49.849Z,43.96
2023-03-06T20:28:28.975Z,58.17
2023-03-06T20:31:14.270Z,40.64
2023-03-06T20:33:55.259Z,56.75
2023-03-06T20:36:37.010Z,39.42
2023-03-06T20:39:21.371Z,39.96
2023-03-06T20:42:05.441Z,45.78
2023-03-06T20:44:44.415Z,34.12
2023-03-06T20:47:23.417Z,33.31
2023-03-06T20:50:02.629Z,29.68
2023-03-06T20:52:41.612Z,29.32
2023-03-06T20:55:20.887Z,28.06
2023-03-06T20:58:04.924Z,27.85
2023-03-06T21:00:43.992Z,28.59
2023-03-06T21:03:23.013Z,27.33
2023-03-06T21:06:02.077Z,27.53
2023-03-06T21:08:41.048Z,28.44
2023-03-06T21:11:20.587Z,28.71
2023-03-06T21:14:05.120Z,28.49
2023-03-06T21:16:44.208Z,26.79
2023-03-06T21:19:23.238Z,28.68
2023-03-06T21:22:02.534Z,28.14
2023-03-06T21:24:42.454Z,27.66
2023-03-06T21:27:21.640Z,27.19
2023-03-06T21:30:05.872Z,28.95
2023-03-06T21:32:44.910Z,26.62
2023-03-06T21:35:24.068Z,26.82
2023-03-06T21:38:03.194Z,26.98
2023-03-06T21:40:42.272Z,27.37
2023-03-06T21:43:21.356Z,28.89
2023-03-06T21:46:05.449Z,28.14
2023-03-06T21:48:44.641Z,27.65
2023-03-06T21:51:26.228Z,27.33
2023-03-06T21:54:05.630Z,27.54
2023-03-06T21:56:44.783Z,29.99
2023-03-06T21:59:23.856Z,32.46
2023-03-06T22:02:07.940Z,30.66
2023-03-06T22:04:47.067Z,28.11
2023-03-06T22:07:26.164Z,26.83
2023-03-06T22:10:05.555Z,26.30
2023-03-06T22:12:46.800Z,26.49
2023-03-06T22:15:26.456Z,27.84
2023-03-06T22:18:16.708Z,28.76
2023-03-06T22:20:55.753Z,30.37
2023-03-06T22:23:34.934Z,29.17
2023-03-06T22:26:16.479Z,27.76
2023-03-06T22:28:55.899Z,26.75
2023-03-06T22:31:35.178Z,26.36
2023-03-06T22:34:19.400Z,27.46
2023-03-06T22:36:58.411Z,27.21
2023-03-06T22:39:37.601Z,27.97
2023-03-06T22:42:16.628Z,27.86
2023-03-06T22:44:55.687Z,27.34
2023-03-06T22:47:34.713Z,26.62
2023-03-06T22:50:19.748Z,28.98
2023-03-06T22:52:58.808Z,28.15
2023-03-06T22:55:37.941Z,27.73
2023-03-06T22:58:16.948Z,29.75
2023-03-06T23:00:57.603Z,29.45
2023-03-06T23:03:36.649Z,27.56
2023-03-06T23:06:24.440Z,27.05
2023-03-06T23:09:06.787Z,28.42
2023-03-06T23:11:45.918Z,27.45
2023-03-06T23:14:26.253Z,28.53
2023-03-06T23:17:05.815Z,27.68
2023-03-06T23:19:44.994Z,28.74
2023-03-06T23:22:30.210Z,29.08
2023-03-06T23:25:09.630Z,28.24
2023-03-06T23:27:48.685Z,28.34
2023-03-06T23:30:27.761Z,29.49
2023-03-06T23:33:06.891Z,29.92
2023-03-06T23:35:46.374Z,29.42
2023-03-06T23:38:30.696Z,29.13
2023-03-06T23:41:10.160Z,29.31
2023-03-06T23:43:49.646Z,29.35
2023-03-06T23:46:28.751Z,28.87
2023-03-06T23:49:08.344Z,28.41
2023-03-06T23:51:47.370Z,28.60
2023-03-06T23:54:31.471Z,29.10
2023-03-06T23:57:11.042Z,29.32
2023-03-06T23:59:50.717Z,29.16
